sensor_id;sensor_type;location;lat;lon;timestamp;temperature;humidity
52125;DHT22;38119;52.710;6.398;2024-03-02T00:00:07;7.90;99.90
52125;DHT22;38119;52.710;6.398;2024-03-02T00:02:45;7.90;99.90
52125;DHT22;38119;52.710;6.398;2024-03-02T00:05:13;7.90;99.90
52125;DHT22;38119;52.710;6.398;2024-03-02T00:07:42;7.90;99.90
52125;DHT22;38119;52.710;6.398;2024-03-02T00:10:10;7.90;99.90
52125;DHT22;38119;52.710;6.398;2024-03-02T00:12:39;7.90;99.90
52125;DHT22;38119;52.710;6.398;2024-03-02T00:15:37;7.90;99.90
52125;DHT22;38119;52.710;6.398;2024-03-02T00:18:08;7.90;99.90
52125;DHT22;38119;52.710;6.398;2024-03-02T00:20:33;7.90;99.90
52125;DHT22;38119;52.710;6.398;2024-03-02T00:23:03;8.00;99.90
52125;DHT22;38119;52.710;6.398;2024-03-02T00:25:39;8.10;99.90
52125;DHT22;38119;52.710;6.398;2024-03-02T00:28:14;7.90;99.90
52125;DHT22;38119;52.710;6.398;2024-03-02T00:31:07;7.90;99.90
52125;DHT22;38119;52.710;6.398;2024-03-02T00:33:43;7.90;99.90
52125;DHT22;38119;52.710;6.398;2024-03-02T00:36:10;8.30;99.90
52125;DHT22;38119;52.710;6.398;2024-03-02T00:38:47;7.90;99.90
52125;DHT22;38119;52.710;6.398;2024-03-02T00:41:27;8.00;99.90
52125;DHT22;38119;52.710;6.398;2024-03-02T00:46:27;7.90;99.90
52125;DHT22;38119;52.710;6.398;2024-03-02T00:49:03;7.90;99.90
52125;DHT22;38119;52.710;6.398;2024-03-02T00:51:32;7.90;99.90
52125;DHT22;38119;52.710;6.398;2024-03-02T00:54:00;7.90;99.90
52125;DHT22;38119;52.710;6.398;2024-03-02T00:56:29;7.90;99.90
52125;DHT22;38119;52.710;6.398;2024-03-02T00:58:55;7.90;99.90
52125;DHT22;38119;52.710;6.398;2024-03-02T01:01:21;7.90;99.90
52125;DHT22;38119;52.710;6.398;2024-03-02T01:03:48;7.90;99.90
52125;DHT22;38119;52.710;6.398;2024-03-02T01:06:14;7.90;99.90
52125;DHT22;38119;52.710;6.398;2024-03-02T01:08:40;7.90;99.90
52125;DHT22;38119;52.710;6.398;2024-03-02T01:11:06;7.90;99.90
52125;DHT22;38119;52.710;6.398;2024-03-02T01:13:32;7.90;99.90
52125;DHT22;38119;52.710;6.398;2024-03-02T01:15:58;7.90;99.90
52125;DHT22;38119;52.710;6.398;2024-03-02T01:18:24;7.90;99.90
52125;DHT22;38119;52.710;6.398;2024-03-02T01:20:50;7.90;99.90
52125;DHT22;38119;52.710;6.398;2024-03-02T01:23:22;7.80;99.90
52125;DHT22;38119;52.710;6.398;2024-03-02T01:25:47;7.90;99.90
52125;DHT22;38119;52.710;6.398;2024-03-02T01:28:14;7.80;99.90
52125;DHT22;38119;52.710;6.398;2024-03-02T01:30:40;7.80;99.90
52125;DHT22;38119;52.710;6.398;2024-03-02T01:33:06;7.80;99.90
52125;DHT22;38119;52.710;6.398;2024-03-02T01:35:32;7.80;99.90
52125;DHT22;38119;52.710;6.398;2024-03-02T01:37:58;7.80;99.90
52125;DHT22;38119;52.710;6.398;2024-03-02T01:40:24;7.80;99.90
52125;DHT22;38119;52.710;6.398;2024-03-02T01:42:53;7.80;99.90
52125;DHT22;38119;52.710;6.398;2024-03-02T01:45:20;7.80;99.90
52125;DHT22;38119;52.710;6.398;2024-03-02T01:47:45;7.80;99.90
52125;DHT22;38119;52.710;6.398;2024-03-02T01:50:11;7.80;99.90
52125;DHT22;38119;52.710;6.398;2024-03-02T01:52:37;7.80;99.90
52125;DHT22;38119;52.710;6.398;2024-03-02T01:55:03;7.90;99.90
52125;DHT22;38119;52.710;6.398;2024-03-02T01:57:29;7.80;99.90
52125;DHT22;38119;52.710;6.398;2024-03-02T01:59:55;7.80;99.90
52125;DHT22;38119;52.710;6.398;2024-03-02T02:02:21;7.80;99.90
52125;DHT22;38119;52.710;6.398;2024-03-02T02:04:47;7.80;99.90
52125;DHT22;38119;52.710;6.398;2024-03-02T02:07:13;7.80;99.90
52125;DHT22;38119;52.710;6.398;2024-03-02T02:09:43;8.00;99.90
52125;DHT22;38119;52.710;6.398;2024-03-02T02:12:12;7.80;99.90
52125;DHT22;38119;52.710;6.398;2024-03-02T02:14:37;7.80;99.90
52125;DHT22;38119;52.710;6.398;2024-03-02T02:17:05;7.80;99.90
52125;DHT22;38119;52.710;6.398;2024-03-02T02:19:31;7.90;99.90
52125;DHT22;38119;52.710;6.398;2024-03-02T02:21:56;7.80;99.90
52125;DHT22;38119;52.710;6.398;2024-03-02T02:24:22;7.90;99.90
52125;DHT22;38119;52.710;6.398;2024-03-02T02:26:47;7.80;99.90
52125;DHT22;38119;52.710;6.398;2024-03-02T02:29:13;7.90;99.90
52125;DHT22;38119;52.710;6.398;2024-03-02T02:31:42;7.90;99.90
52125;DHT22;38119;52.710;6.398;2024-03-02T02:34:07;7.90;99.90
52125;DHT22;38119;52.710;6.398;2024-03-02T02:36:37;7.80;99.90
52125;DHT22;38119;52.710;6.398;2024-03-02T02:39:04;7.90;99.90
52125;DHT22;38119;52.710;6.398;2024-03-02T02:41:32;7.80;99.90
52125;DHT22;38119;52.710;6.398;2024-03-02T02:43:57;7.90;99.90
52125;DHT22;38119;52.710;6.398;2024-03-02T02:46:23;7.90;99.90
52125;DHT22;38119;52.710;6.398;2024-03-02T02:48:49;7.90;99.90
52125;DHT22;38119;52.710;6.398;2024-03-02T02:51:16;7.90;99.90
52125;DHT22;38119;52.710;6.398;2024-03-02T02:53:42;7.90;99.90
52125;DHT22;38119;52.710;6.398;2024-03-02T02:56:08;7.90;99.90
52125;DHT22;38119;52.710;6.398;2024-03-02T02:58:33;7.90;99.90
52125;DHT22;38119;52.710;6.398;2024-03-02T03:00:59;7.90;99.90
52125;DHT22;38119;52.710;6.398;2024-03-02T03:03:24;7.90;99.90
52125;DHT22;38119;52.710;6.398;2024-03-02T03:05:50;7.90;99.90
52125;DHT22;38119;52.710;6.398;2024-03-02T03:08:16;7.90;99.90
52125;DHT22;38119;52.710;6.398;2024-03-02T03:10:41;7.90;99.90
52125;DHT22;38119;52.710;6.398;2024-03-02T03:13:07;7.90;99.90
52125;DHT22;38119;52.710;6.398;2024-03-02T03:15:36;7.80;99.90
52125;DHT22;38119;52.710;6.398;2024-03-02T03:18:03;7.80;99.90
52125;DHT22;38119;52.710;6.398;2024-03-02T03:20:29;7.90;99.90
52125;DHT22;38119;52.710;6.398;2024-03-02T03:22:56;7.90;99.90
52125;DHT22;38119;52.710;6.398;2024-03-02T03:25:21;7.90;99.90
52125;DHT22;38119;52.710;6.398;2024-03-02T03:27:47;7.90;99.90
52125;DHT22;38119;52.710;6.398;2024-03-02T03:30:13;7.90;99.90
52125;DHT22;38119;52.710;6.398;2024-03-02T03:32:38;7.80;99.90
52125;DHT22;38119;52.710;6.398;2024-03-02T03:35:04;7.90;99.90
52125;DHT22;38119;52.710;6.398;2024-03-02T03:37:31;7.90;99.90
52125;DHT22;38119;52.710;6.398;2024-03-02T03:39:59;7.80;99.90
52125;DHT22;38119;52.710;6.398;2024-03-02T03:42:25;7.90;99.90
52125;DHT22;38119;52.710;6.398;2024-03-02T03:44:50;7.80;99.90
52125;DHT22;38119;52.710;6.398;2024-03-02T03:47:16;7.80;99.90
52125;DHT22;38119;52.710;6.398;2024-03-02T03:49:41;7.80;99.90
52125;DHT22;38119;52.710;6.398;2024-03-02T03:52:07;7.80;99.90
52125;DHT22;38119;52.710;6.398;2024-03-02T03:54:33;7.80;99.90
52125;DHT22;38119;52.710;6.398;2024-03-02T03:56:58;7.80;99.90
52125;DHT22;38119;52.710;6.398;2024-03-02T03:59:24;7.80;99.90
52125;DHT22;38119;52.710;6.398;2024-03-02T04:01:49;7.80;99.90
52125;DHT22;38119;52.710;6.398;2024-03-02T04:04:15;7.80;99.90
52125;DHT22;38119;52.710;6.398;2024-03-02T04:06:41;7.80;99.90
52125;DHT22;38119;52.710;6.398;2024-03-02T04:09:06;7.80;99.90
52125;DHT22;38119;52.710;6.398;2024-03-02T04:11:32;7.80;99.90
52125;DHT22;38119;52.710;6.398;2024-03-02T04:13:58;7.80;99.90
52125;DHT22;38119;52.710;6.398;2024-03-02T04:16:23;7.80;99.90
52125;DHT22;38119;52.710;6.398;2024-03-02T04:18:49;7.80;99.90
52125;DHT22;38119;52.710;6.398;2024-03-02T04:21:15;7.80;99.90
52125;DHT22;38119;52.710;6.398;2024-03-02T04:23:40;7.80;99.90
52125;DHT22;38119;52.710;6.398;2024-03-02T04:26:06;7.80;99.90
52125;DHT22;38119;52.710;6.398;2024-03-02T04:28:31;7.80;99.90
52125;DHT22;38119;52.710;6.398;2024-03-02T04:30:58;7.80;99.90
52125;DHT22;38119;52.710;6.398;2024-03-02T04:33:23;7.80;99.90
52125;DHT22;38119;52.710;6.398;2024-03-02T04:35:49;7.80;99.90
52125;DHT22;38119;52.710;6.398;2024-03-02T04:38:15;7.80;99.90
52125;DHT22;38119;52.710;6.398;2024-03-02T04:40:40;7.80;99.90
52125;DHT22;38119;52.710;6.398;2024-03-02T04:43:06;7.80;99.90
52125;DHT22;38119;52.710;6.398;2024-03-02T04:45:33;7.80;99.90
52125;DHT22;38119;52.710;6.398;2024-03-02T04:47:59;7.80;99.90
52125;DHT22;38119;52.710;6.398;2024-03-02T04:50:25;7.80;99.90
52125;DHT22;38119;52.710;6.398;2024-03-02T04:52:50;7.80;99.90
52125;DHT22;38119;52.710;6.398;2024-03-02T04:55:16;7.80;99.90
52125;DHT22;38119;52.710;6.398;2024-03-02T04:57:41;7.80;99.90
52125;DHT22;38119;52.710;6.398;2024-03-02T05:00:07;7.80;99.90
52125;DHT22;38119;52.710;6.398;2024-03-02T05:02:34;7.70;99.90
52125;DHT22;38119;52.710;6.398;2024-03-02T05:05:00;7.70;99.90
52125;DHT22;38119;52.710;6.398;2024-03-02T05:07:26;7.60;99.90
52125;DHT22;38119;52.710;6.398;2024-03-02T05:09:51;7.60;99.90
52125;DHT22;38119;52.710;6.398;2024-03-02T05:12:17;7.60;99.90
52125;DHT22;38119;52.710;6.398;2024-03-02T05:15:01;7.60;99.90
52125;DHT22;38119;52.710;6.398;2024-03-02T05:17:27;7.70;99.90
52125;DHT22;38119;52.710;6.398;2024-03-02T05:19:53;7.70;99.90
52125;DHT22;38119;52.710;6.398;2024-03-02T05:22:18;7.70;99.90
52125;DHT22;38119;52.710;6.398;2024-03-02T05:24:44;7.80;99.90
52125;DHT22;38119;52.710;6.398;2024-03-02T05:27:09;7.80;99.90
52125;DHT22;38119;52.710;6.398;2024-03-02T05:29:35;7.80;99.90
52125;DHT22;38119;52.710;6.398;2024-03-02T05:32:01;7.70;99.90
52125;DHT22;38119;52.710;6.398;2024-03-02T05:34:27;7.80;99.90
52125;DHT22;38119;52.710;6.398;2024-03-02T05:36:52;7.70;99.90
52125;DHT22;38119;52.710;6.398;2024-03-02T05:39:18;7.70;99.90
52125;DHT22;38119;52.710;6.398;2024-03-02T05:41:44;7.70;99.90
52125;DHT22;38119;52.710;6.398;2024-03-02T05:44:09;7.70;99.90
52125;DHT22;38119;52.710;6.398;2024-03-02T05:46:35;7.60;99.90
52125;DHT22;38119;52.710;6.398;2024-03-02T05:49:01;7.60;99.90
52125;DHT22;38119;52.710;6.398;2024-03-02T05:51:27;7.50;99.90
52125;DHT22;38119;52.710;6.398;2024-03-02T05:53:53;7.50;99.90
52125;DHT22;38119;52.710;6.398;2024-03-02T05:56:18;7.40;99.90
52125;DHT22;38119;52.710;6.398;2024-03-02T05:58:44;7.40;99.90
52125;DHT22;38119;52.710;6.398;2024-03-02T06:01:19;7.30;99.90
52125;DHT22;38119;52.710;6.398;2024-03-02T06:03:44;7.20;99.90
52125;DHT22;38119;52.710;6.398;2024-03-02T06:06:10;7.30;99.90
52125;DHT22;38119;52.710;6.398;2024-03-02T06:08:36;7.20;99.90
52125;DHT22;38119;52.710;6.398;2024-03-02T06:11:01;7.10;99.90
52125;DHT22;38119;52.710;6.398;2024-03-02T06:13:27;7.00;99.90
52125;DHT22;38119;52.710;6.398;2024-03-02T06:15:53;7.00;99.90
52125;DHT22;38119;52.710;6.398;2024-03-02T06:18:18;7.00;99.90
52125;DHT22;38119;52.710;6.398;2024-03-02T06:20:44;7.00;99.90
52125;DHT22;38119;52.710;6.398;2024-03-02T06:23:10;7.00;99.90
52125;DHT22;38119;52.710;6.398;2024-03-02T06:25:35;7.00;99.90
52125;DHT22;38119;52.710;6.398;2024-03-02T06:28:01;7.00;99.90
52125;DHT22;38119;52.710;6.398;2024-03-02T06:30:27;7.00;99.90
52125;DHT22;38119;52.710;6.398;2024-03-02T06:32:52;7.00;99.90
52125;DHT22;38119;52.710;6.398;2024-03-02T06:35:18;7.00;99.90
52125;DHT22;38119;52.710;6.398;2024-03-02T06:37:43;7.00;99.90
52125;DHT22;38119;52.710;6.398;2024-03-02T06:40:09;7.00;99.90
52125;DHT22;38119;52.710;6.398;2024-03-02T06:42:35;7.00;99.90
52125;DHT22;38119;52.710;6.398;2024-03-02T06:45:02;7.10;99.90
52125;DHT22;38119;52.710;6.398;2024-03-02T06:47:28;7.00;99.90
52125;DHT22;38119;52.710;6.398;2024-03-02T06:49:53;7.00;99.90
52125;DHT22;38119;52.710;6.398;2024-03-02T06:52:19;7.00;99.90
52125;DHT22;38119;52.710;6.398;2024-03-02T06:54:46;7.00;99.90
52125;DHT22;38119;52.710;6.398;2024-03-02T06:57:12;7.00;99.90
52125;DHT22;38119;52.710;6.398;2024-03-02T06:59:37;7.00;99.90
52125;DHT22;38119;52.710;6.398;2024-03-02T07:02:03;7.00;99.90
52125;DHT22;38119;52.710;6.398;2024-03-02T07:04:29;6.90;99.90
52125;DHT22;38119;52.710;6.398;2024-03-02T07:06:54;7.00;99.90
52125;DHT22;38119;52.710;6.398;2024-03-02T07:09:20;6.90;99.90
52125;DHT22;38119;52.710;6.398;2024-03-02T07:11:48;6.90;99.90
52125;DHT22;38119;52.710;6.398;2024-03-02T07:14:14;6.90;99.90
52125;DHT22;38119;52.710;6.398;2024-03-02T07:16:40;6.90;99.90
52125;DHT22;38119;52.710;6.398;2024-03-02T07:19:06;6.90;99.90
52125;DHT22;38119;52.710;6.398;2024-03-02T07:21:32;6.90;99.90
52125;DHT22;38119;52.710;6.398;2024-03-02T07:23:58;6.90;99.90
52125;DHT22;38119;52.710;6.398;2024-03-02T07:26:25;6.90;99.90
52125;DHT22;38119;52.710;6.398;2024-03-02T07:28:51;6.90;99.90
52125;DHT22;38119;52.710;6.398;2024-03-02T07:31:17;6.90;99.90
52125;DHT22;38119;52.710;6.398;2024-03-02T07:33:46;6.90;99.90
52125;DHT22;38119;52.710;6.398;2024-03-02T07:36:12;6.90;99.90
52125;DHT22;38119;52.710;6.398;2024-03-02T07:38:38;6.90;99.90
52125;DHT22;38119;52.710;6.398;2024-03-02T07:41:04;7.00;99.90
52125;DHT22;38119;52.710;6.398;2024-03-02T07:43:30;7.00;99.90
52125;DHT22;38119;52.710;6.398;2024-03-02T07:45:57;7.00;99.90
52125;DHT22;38119;52.710;6.398;2024-03-02T07:48:23;7.00;99.90
52125;DHT22;38119;52.710;6.398;2024-03-02T07:50:48;7.00;99.90
52125;DHT22;38119;52.710;6.398;2024-03-02T07:53:14;7.00;99.90
52125;DHT22;38119;52.710;6.398;2024-03-02T07:55:40;7.10;99.90
52125;DHT22;38119;52.710;6.398;2024-03-02T07:58:06;7.10;99.90
52125;DHT22;38119;52.710;6.398;2024-03-02T08:00:32;7.10;99.90
52125;DHT22;38119;52.710;6.398;2024-03-02T08:02:58;7.10;99.90
52125;DHT22;38119;52.710;6.398;2024-03-02T08:05:23;7.10;99.90
52125;DHT22;38119;52.710;6.398;2024-03-02T08:07:49;7.10;99.90
52125;DHT22;38119;52.710;6.398;2024-03-02T08:10:18;7.20;99.90
52125;DHT22;38119;52.710;6.398;2024-03-02T08:12:43;7.20;99.90
52125;DHT22;38119;52.710;6.398;2024-03-02T08:15:09;7.30;99.90
52125;DHT22;38119;52.710;6.398;2024-03-02T08:17:35;7.30;99.90
52125;DHT22;38119;52.710;6.398;2024-03-02T08:20:01;7.40;99.90
52125;DHT22;38119;52.710;6.398;2024-03-02T08:22:27;7.40;99.90
52125;DHT22;38119;52.710;6.398;2024-03-02T08:24:53;7.40;99.90
52125;DHT22;38119;52.710;6.398;2024-03-02T08:27:19;7.40;99.90
52125;DHT22;38119;52.710;6.398;2024-03-02T08:29:44;7.50;99.90
52125;DHT22;38119;52.710;6.398;2024-03-02T08:32:10;7.50;99.90
52125;DHT22;38119;52.710;6.398;2024-03-02T08:34:35;7.50;99.90
52125;DHT22;38119;52.710;6.398;2024-03-02T08:37:02;7.60;99.90
52125;DHT22;38119;52.710;6.398;2024-03-02T08:39:28;7.60;99.90
52125;DHT22;38119;52.710;6.398;2024-03-02T08:41:53;7.60;99.90
52125;DHT22;38119;52.710;6.398;2024-03-02T08:44:20;7.70;99.90
52125;DHT22;38119;52.710;6.398;2024-03-02T08:46:45;7.70;99.90
52125;DHT22;38119;52.710;6.398;2024-03-02T08:49:12;7.80;99.90
52125;DHT22;38119;52.710;6.398;2024-03-02T08:51:37;7.80;99.90
52125;DHT22;38119;52.710;6.398;2024-03-02T08:54:03;7.90;99.90
52125;DHT22;38119;52.710;6.398;2024-03-02T08:56:30;8.00;99.90
52125;DHT22;38119;52.710;6.398;2024-03-02T08:58:56;8.10;99.90
52125;DHT22;38119;52.710;6.398;2024-03-02T09:01:22;8.20;99.90
52125;DHT22;38119;52.710;6.398;2024-03-02T09:03:48;8.20;99.90
52125;DHT22;38119;52.710;6.398;2024-03-02T09:06:15;8.30;99.90
52125;DHT22;38119;52.710;6.398;2024-03-02T09:08:43;8.40;99.90
52125;DHT22;38119;52.710;6.398;2024-03-02T09:11:10;8.40;99.90
52125;DHT22;38119;52.710;6.398;2024-03-02T09:13:36;8.40;99.90
52125;DHT22;38119;52.710;6.398;2024-03-02T09:16:02;8.50;99.90
52125;DHT22;38119;52.710;6.398;2024-03-02T09:18:29;8.50;99.90
52125;DHT22;38119;52.710;6.398;2024-03-02T09:20:55;8.60;99.90
52125;DHT22;38119;52.710;6.398;2024-03-02T09:23:21;8.60;99.90
52125;DHT22;38119;52.710;6.398;2024-03-02T09:25:46;8.70;99.90
52125;DHT22;38119;52.710;6.398;2024-03-02T09:28:15;8.70;99.90
52125;DHT22;38119;52.710;6.398;2024-03-02T09:30:40;8.70;99.90
52125;DHT22;38119;52.710;6.398;2024-03-02T09:33:06;8.80;99.90
52125;DHT22;38119;52.710;6.398;2024-03-02T09:35:32;8.80;99.90
52125;DHT22;38119;52.710;6.398;2024-03-02T09:37:58;8.80;99.90
52125;DHT22;38119;52.710;6.398;2024-03-02T09:40:23;8.80;99.90
52125;DHT22;38119;52.710;6.398;2024-03-02T09:42:49;8.80;99.90
52125;DHT22;38119;52.710;6.398;2024-03-02T09:45:24;8.90;99.90
52125;DHT22;38119;52.710;6.398;2024-03-02T09:47:51;8.90;99.90
52125;DHT22;38119;52.710;6.398;2024-03-02T09:50:16;8.90;99.90
52125;DHT22;38119;52.710;6.398;2024-03-02T09:52:42;8.90;99.90
52125;DHT22;38119;52.710;6.398;2024-03-02T09:55:09;9.00;99.90
52125;DHT22;38119;52.710;6.398;2024-03-02T09:57:35;9.00;99.90
52125;DHT22;38119;52.710;6.398;2024-03-02T10:00:00;9.10;99.90
52125;DHT22;38119;52.710;6.398;2024-03-02T10:02:26;9.10;99.90
52125;DHT22;38119;52.710;6.398;2024-03-02T10:04:52;9.20;99.90
52125;DHT22;38119;52.710;6.398;2024-03-02T10:07:18;9.20;99.90
52125;DHT22;38119;52.710;6.398;2024-03-02T10:09:48;9.20;99.90
52125;DHT22;38119;52.710;6.398;2024-03-02T10:12:16;9.20;99.90
52125;DHT22;38119;52.710;6.398;2024-03-02T10:14:42;9.20;99.90
52125;DHT22;38119;52.710;6.398;2024-03-02T10:17:09;9.30;99.90
52125;DHT22;38119;52.710;6.398;2024-03-02T10:19:36;9.30;99.90
52125;DHT22;38119;52.710;6.398;2024-03-02T10:22:07;9.40;99.90
52125;DHT22;38119;52.710;6.398;2024-03-02T10:24:40;9.50;99.90
52125;DHT22;38119;52.710;6.398;2024-03-02T10:27:10;9.50;99.90
52125;DHT22;38119;52.710;6.398;2024-03-02T10:29:40;9.50;99.90
52125;DHT22;38119;52.710;6.398;2024-03-02T10:32:08;9.60;99.90
52125;DHT22;38119;52.710;6.398;2024-03-02T10:34:34;9.70;99.90
52125;DHT22;38119;52.710;6.398;2024-03-02T10:37:00;9.80;99.90
52125;DHT22;38119;52.710;6.398;2024-03-02T10:39:27;10.00;99.90
52125;DHT22;38119;52.710;6.398;2024-03-02T10:41:53;10.10;99.90
52125;DHT22;38119;52.710;6.398;2024-03-02T10:44:22;10.20;99.90
52125;DHT22;38119;52.710;6.398;2024-03-02T10:46:49;10.30;99.90
52125;DHT22;38119;52.710;6.398;2024-03-02T10:49:16;10.50;99.90
52125;DHT22;38119;52.710;6.398;2024-03-02T10:51:43;10.70;99.90
52125;DHT22;38119;52.710;6.398;2024-03-02T10:54:08;10.80;99.90
52125;DHT22;38119;52.710;6.398;2024-03-02T10:56:39;10.90;99.90
52125;DHT22;38119;52.710;6.398;2024-03-02T11:01:55;11.20;99.90
52125;DHT22;38119;52.710;6.398;2024-03-02T11:04:24;11.30;99.90
52125;DHT22;38119;52.710;6.398;2024-03-02T11:06:51;11.40;99.90
52125;DHT22;38119;52.710;6.398;2024-03-02T11:09:22;11.50;99.90
52125;DHT22;38119;52.710;6.398;2024-03-02T11:12:03;11.60;99.90
52125;DHT22;38119;52.710;6.398;2024-03-02T11:14:32;11.70;99.90
52125;DHT22;38119;52.710;6.398;2024-03-02T11:17:01;11.80;99.90
52125;DHT22;38119;52.710;6.398;2024-03-02T11:19:28;11.90;99.90
52125;DHT22;38119;52.710;6.398;2024-03-02T11:21:54;12.00;99.90
52125;DHT22;38119;52.710;6.398;2024-03-02T11:26:50;12.20;99.90
52125;DHT22;38119;52.710;6.398;2024-03-02T11:32:03;12.40;99.90
52125;DHT22;38119;52.710;6.398;2024-03-02T11:34:36;12.40;99.90
52125;DHT22;38119;52.710;6.398;2024-03-02T11:37:04;12.50;99.90
52125;DHT22;38119;52.710;6.398;2024-03-02T11:39:30;12.50;99.90
52125;DHT22;38119;52.710;6.398;2024-03-02T11:41:57;12.60;99.90
52125;DHT22;38119;52.710;6.398;2024-03-02T11:44:24;12.60;99.90
52125;DHT22;38119;52.710;6.398;2024-03-02T11:46:59;12.70;99.90
52125;DHT22;38119;52.710;6.398;2024-03-02T11:49:37;12.70;99.90
52125;DHT22;38119;52.710;6.398;2024-03-02T11:52:05;12.60;99.90
52125;DHT22;38119;52.710;6.398;2024-03-02T11:54:33;12.50;99.90
52125;DHT22;38119;52.710;6.398;2024-03-02T11:57:01;12.40;99.90
52125;DHT22;38119;52.710;6.398;2024-03-02T11:59:29;12.30;99.90
52125;DHT22;38119;52.710;6.398;2024-03-02T12:01:55;12.40;99.90
52125;DHT22;38119;52.710;6.398;2024-03-02T12:04:21;12.40;99.90
52125;DHT22;38119;52.710;6.398;2024-03-02T12:06:53;12.50;99.90
52125;DHT22;38119;52.710;6.398;2024-03-02T12:09:20;12.60;99.90
52125;DHT22;38119;52.710;6.398;2024-03-02T12:11:45;12.60;99.90
52125;DHT22;38119;52.710;6.398;2024-03-02T12:14:11;12.70;99.90
52125;DHT22;38119;52.710;6.398;2024-03-02T12:16:43;12.80;99.90
52125;DHT22;38119;52.710;6.398;2024-03-02T12:19:09;12.90;99.90
52125;DHT22;38119;52.710;6.398;2024-03-02T12:21:34;13.00;99.90
52125;DHT22;38119;52.710;6.398;2024-03-02T12:24:01;13.10;99.90
52125;DHT22;38119;52.710;6.398;2024-03-02T12:26:27;13.10;99.90
52125;DHT22;38119;52.710;6.398;2024-03-02T12:28:53;13.10;99.90
52125;DHT22;38119;52.710;6.398;2024-03-02T12:31:19;13.10;99.90
52125;DHT22;38119;52.710;6.398;2024-03-02T12:33:46;13.10;99.90
52125;DHT22;38119;52.710;6.398;2024-03-02T12:36:13;13.10;99.90
52125;DHT22;38119;52.710;6.398;2024-03-02T12:38:43;13.10;99.90
52125;DHT22;38119;52.710;6.398;2024-03-02T12:41:09;13.10;99.90
52125;DHT22;38119;52.710;6.398;2024-03-02T12:43:35;13.10;99.90
52125;DHT22;38119;52.710;6.398;2024-03-02T12:46:00;13.00;99.90
52125;DHT22;38119;52.710;6.398;2024-03-02T12:48:26;13.00;99.90
52125;DHT22;38119;52.710;6.398;2024-03-02T12:50:52;13.10;99.90
52125;DHT22;38119;52.710;6.398;2024-03-02T12:53:18;13.20;99.90
52125;DHT22;38119;52.710;6.398;2024-03-02T12:55:44;13.20;99.90
52125;DHT22;38119;52.710;6.398;2024-03-02T12:58:30;13.20;99.90
52125;DHT22;38119;52.710;6.398;2024-03-02T13:01:06;13.20;99.90
52125;DHT22;38119;52.710;6.398;2024-03-02T13:03:36;13.20;99.90
52125;DHT22;38119;52.710;6.398;2024-03-02T13:06:02;13.20;99.90
52125;DHT22;38119;52.710;6.398;2024-03-02T13:08:27;13.20;99.90
52125;DHT22;38119;52.710;6.398;2024-03-02T13:10:54;13.30;99.90
52125;DHT22;38119;52.710;6.398;2024-03-02T13:13:20;13.30;99.90
52125;DHT22;38119;52.710;6.398;2024-03-02T13:15:45;13.40;99.90
52125;DHT22;38119;52.710;6.398;2024-03-02T13:18:11;13.40;99.90
52125;DHT22;38119;52.710;6.398;2024-03-02T13:20:37;13.40;99.90
52125;DHT22;38119;52.710;6.398;2024-03-02T13:23:04;13.40;99.90
52125;DHT22;38119;52.710;6.398;2024-03-02T13:25:29;13.40;99.90
52125;DHT22;38119;52.710;6.398;2024-03-02T13:27:57;13.50;99.90
52125;DHT22;38119;52.710;6.398;2024-03-02T13:30:23;13.50;99.90
52125;DHT22;38119;52.710;6.398;2024-03-02T13:32:49;13.50;99.90
52125;DHT22;38119;52.710;6.398;2024-03-02T13:35:14;13.30;99.90
52125;DHT22;38119;52.710;6.398;2024-03-02T13:37:40;13.30;99.90
52125;DHT22;38119;52.710;6.398;2024-03-02T13:40:06;13.10;99.90
52125;DHT22;38119;52.710;6.398;2024-03-02T13:42:38;13.20;99.90
52125;DHT22;38119;52.710;6.398;2024-03-02T13:45:05;13.10;99.90
52125;DHT22;38119;52.710;6.398;2024-03-02T13:47:31;13.10;99.90
52125;DHT22;38119;52.710;6.398;2024-03-02T13:49:56;13.00;99.90
52125;DHT22;38119;52.710;6.398;2024-03-02T13:52:22;13.10;99.90
52125;DHT22;38119;52.710;6.398;2024-03-02T13:54:48;13.00;99.90
52125;DHT22;38119;52.710;6.398;2024-03-02T13:57:14;12.90;99.90
52125;DHT22;38119;52.710;6.398;2024-03-02T13:59:41;13.00;99.90
52125;DHT22;38119;52.710;6.398;2024-03-02T14:02:07;13.00;99.90
52125;DHT22;38119;52.710;6.398;2024-03-02T14:04:34;13.00;99.90
52125;DHT22;38119;52.710;6.398;2024-03-02T14:07:00;13.10;99.90
52125;DHT22;38119;52.710;6.398;2024-03-02T14:09:26;13.10;99.90
52125;DHT22;38119;52.710;6.398;2024-03-02T14:11:54;13.10;99.90
52125;DHT22;38119;52.710;6.398;2024-03-02T14:14:20;13.00;99.90
52125;DHT22;38119;52.710;6.398;2024-03-02T14:16:45;13.10;99.90
52125;DHT22;38119;52.710;6.398;2024-03-02T14:19:11;13.00;99.90
52125;DHT22;38119;52.710;6.398;2024-03-02T14:21:41;13.00;99.90
52125;DHT22;38119;52.710;6.398;2024-03-02T14:24:06;13.00;99.90
52125;DHT22;38119;52.710;6.398;2024-03-02T14:26:33;12.90;99.90
52125;DHT22;38119;52.710;6.398;2024-03-02T14:28:59;12.90;99.90
52125;DHT22;38119;52.710;6.398;2024-03-02T14:31:26;12.90;99.90
52125;DHT22;38119;52.710;6.398;2024-03-02T14:33:52;13.00;99.90
52125;DHT22;38119;52.710;6.398;2024-03-02T14:36:18;12.90;99.90
52125;DHT22;38119;52.710;6.398;2024-03-02T14:38:44;12.90;99.90
52125;DHT22;38119;52.710;6.398;2024-03-02T14:41:09;12.90;99.90
52125;DHT22;38119;52.710;6.398;2024-03-02T14:43:35;12.90;99.90
52125;DHT22;38119;52.710;6.398;2024-03-02T14:46:03;12.80;99.90
52125;DHT22;38119;52.710;6.398;2024-03-02T14:48:29;12.80;99.90
52125;DHT22;38119;52.710;6.398;2024-03-02T14:50:55;12.70;99.90
52125;DHT22;38119;52.710;6.398;2024-03-02T14:53:20;12.60;99.90
52125;DHT22;38119;52.710;6.398;2024-03-02T14:55:46;12.60;99.90
52125;DHT22;38119;52.710;6.398;2024-03-02T14:58:12;12.60;99.90
52125;DHT22;38119;52.710;6.398;2024-03-02T15:00:38;12.50;99.90
52125;DHT22;38119;52.710;6.398;2024-03-02T15:03:04;12.60;99.90
52125;DHT22;38119;52.710;6.398;2024-03-02T15:05:33;12.70;99.90
52125;DHT22;38119;52.710;6.398;2024-03-02T15:07:58;13.00;99.90
52125;DHT22;38119;52.710;6.398;2024-03-02T15:10:27;12.90;99.90
52125;DHT22;38119;52.710;6.398;2024-03-02T15:12:53;12.90;99.90
52125;DHT22;38119;52.710;6.398;2024-03-02T15:15:19;12.90;99.90
52125;DHT22;38119;52.710;6.398;2024-03-02T15:17:44;12.90;99.90
52125;DHT22;38119;52.710;6.398;2024-03-02T15:20:10;13.00;99.90
52125;DHT22;38119;52.710;6.398;2024-03-02T15:22:36;13.00;99.90
52125;DHT22;38119;52.710;6.398;2024-03-02T15:25:01;13.00;99.90
52125;DHT22;38119;52.710;6.398;2024-03-02T15:27:27;12.90;99.90
52125;DHT22;38119;52.710;6.398;2024-03-02T15:29:53;12.90;99.90
52125;DHT22;38119;52.710;6.398;2024-03-02T15:32:20;12.80;99.90
52125;DHT22;38119;52.710;6.398;2024-03-02T15:34:46;12.80;99.90
52125;DHT22;38119;52.710;6.398;2024-03-02T15:37:12;12.70;99.90
52125;DHT22;38119;52.710;6.398;2024-03-02T15:39:37;12.70;99.90
52125;DHT22;38119;52.710;6.398;2024-03-02T15:42:03;12.70;99.90
52125;DHT22;38119;52.710;6.398;2024-03-02T15:44:30;12.80;99.90
52125;DHT22;38119;52.710;6.398;2024-03-02T15:46:57;12.80;99.90